Time;durP1;ratioP1;P1;durP2;ratioP2;P2;SDS_P1;SDS_P2;PMS_P1;PMS_P2;Temp;Humidity;BMP_temperature;BMP_pressure;BME280_temperature;BME280_humidity;BME280_pressure;Samples;Min_cycle;Max_cycle;Signal;HPM_P1;HPM_P2
2024/01/15 00:02:16;;;;;;;11.50;8.23;;;2.50;99.90;;;;;;4968678;28;20277;-55
2024/01/15 00:04:42;;;;;;;11.50;9.23;;;2.60;99.90;;;;;;4969423;28;20277;-55
2024/01/15 00:07:08;;;;;;;10.57;9.20;;;2.70;99.90;;;;;;4972647;28;20219;-55
2024/01/15 00:09:34;;;;;;;13.87;9.33;;;2.80;99.90;;;;;;4976337;28;20230;-55
2024/01/15 00:12:00;;;;;;;11.93;9.93;;;2.80;99.90;;;;;;4970868;28;20210;-54
2024/01/15 00:14:26;;;;;;;16.13;9.93;;;2.90;99.90;;;;;;4955372;28;20208;-54
2024/01/15 00:16:51;;;;;;;10.53;9.27;;;2.80;99.90;;;;;;4952509;28;20715;-54
2024/01/15 00:19:18;;;;;;;12.53;8.90;;;3.00;99.90;;;;;;4970561;28;20598;-55
2024/01/15 00:21:44;;;;;;;12.33;10.13;;;3.00;99.90;;;;;;4970565;28;20294;-55
2024/01/15 00:24:09;;;;;;;13.53;8.87;;;2.90;99.90;;;;;;4957329;28;20199;-56
2024/01/15 00:26:35;;;;;;;13.30;9.47;;;2.80;99.90;;;;;;4971140;28;20236;-56
2024/01/15 00:29:00;;;;;;;12.47;7.73;;;2.90;99.90;;;;;;4973511;28;21119;-54
2024/01/15 00:31:26;;;;;;;10.47;8.77;;;3.20;99.90;;;;;;4959562;28;20233;-55
2024/01/15 00:33:52;;;;;;;10.70;9.40;;;3.00;99.90;;;;;;4977063;28;20287;-54
2024/01/15 00:36:17;;;;;;;10.37;8.67;;;2.90;99.90;;;;;;4972450;28;20708;-54
2024/01/15 00:38:44;;;;;;;11.33;9.30;;;2.80;99.90;;;;;;4975248;28;20234;-54
2024/01/15 00:41:09;;;;;;;11.10;8.77;;;2.80;99.90;;;;;;4972972;28;20567;-55
2024/01/15 00:43:35;;;;;;;10.87;8.97;;;2.80;99.90;;;;;;4972119;28;20203;-56
2024/01/15 00:46:04;;;;;;;10.33;8.47;;;2.90;99.90;;;;;;4976592;28;20243;-55
2024/01/15 00:48:30;;;;;;;9.50;8.33;;;2.90;99.90;;;;;;4976651;28;20792;-62
2024/01/15 00:50:55;;;;;;;13.87;9.87;;;2.80;99.90;;;;;;4966634;28;20626;-54
2024/01/15 00:53:22;;;;;;;11.63;9.00;;;2.90;99.90;;;;;;4972853;28;20216;-63
2024/01/15 00:55:48;;;;;;;11.90;8.43;;;2.80;99.90;;;;;;4976142;28;20195;-63
2024/01/15 00:58:14;;;;;;;10.30;8.07;;;2.90;99.90;;;;;;4972487;28;20204;-54
2024/01/15 01:00:39;;;;;;;12.53;9.67;;;3.00;99.90;;;;;;4970442;28;20208;-55
2024/01/15 01:03:05;;;;;;;11.20;9.13;;;3.10;99.90;;;;;;4971695;28;20207;-55
2024/01/15 01:05:30;;;;;;;10.50;9.13;;;3.00;99.90;;;;;;4971556;28;20204;-54
2024/01/15 01:07:55;;;;;;;12.37;9.00;;;3.00;99.90;;;;;;4969623;28;20284;-57
2024/01/15 01:10:21;;;;;;;15.50;9.53;;;3.00;99.90;;;;;;4970108;28;20215;-54
2024/01/15 01:12:46;;;;;;;14.20;9.87;;;2.50;99.90;;;;;;4973777;28;20214;-54
2024/01/15 01:15:12;;;;;;;12.37;9.50;;;2.00;99.90;;;;;;4977280;28;20207;-54
2024/01/15 01:17:38;;;;;;;15.30;10.43;;;2.00;99.90;;;;;;4971353;28;20241;-52
2024/01/15 01:20:06;;;;;;;15.77;10.40;;;1.80;99.90;;;;;;4970514;28;20270;-54
2024/01/15 01:22:31;;;;;;;4.80;4.47;;;1.60;99.90;;;;;;4970143;28;20240;-55
2024/01/15 01:24:57;;;;;;;14.67;9.37;;;1.70;99.90;;;;;;4976613;28;20212;-53
2024/01/15 01:27:22;;;;;;;14.57;10.33;;;1.80;99.90;;;;;;4972060;28;20224;-55
2024/01/15 01:29:48;;;;;;;15.30;10.93;;;1.70;99.90;;;;;;4969071;28;20287;-54
2024/01/15 01:32:14;;;;;;;15.37;11.30;;;1.70;99.90;;;;;;4975396;28;20202;-64
2024/01/15 01:34:42;;;;;;;15.80;10.53;;;1.70;99.90;;;;;;4975618;28;20283;-66
2024/01/15 01:37:08;;;;;;;16.37;11.30;;;1.60;99.90;;;;;;4971663;28;20198;-64
2024/01/15 01:39:34;;;;;;;16.63;11.33;;;1.60;99.90;;;;;;4969373;28;20195;-54
2024/01/15 01:41:59;;;;;;;16.00;11.60;;;1.60;99.90;;;;;;4973773;28;20678;-54
2024/01/15 01:44:25;;;;;;;18.87;11.13;;;1.40;99.90;;;;;;4969719;28;20992;-54
2024/01/15 01:46:51;;;;;;;14.83;11.20;;;1.20;99.90;;;;;;4971714;28;20222;-54
2024/01/15 01:49:17;;;;;;;18.33;12.00;;;1.20;99.90;;;;;;4957589;28;20715;-54
2024/01/15 01:51:42;;;;;;;19.43;11.77;;;1.20;99.90;;;;;;4953824;28;20234;-54
2024/01/15 01:54:11;;;;;;;17.47;12.77;;;1.20;99.90;;;;;;4970545;28;20247;-54
2024/01/15 01:56:37;;;;;;;15.93;11.97;;;1.20;99.90;;;;;;4972381;28;20190;-54
2024/01/15 01:59:04;;;;;;;18.87;12.27;;;1.20;99.90;;;;;;4973744;28;20705;-54
2024/01/15 02:01:31;;;;;;;17.43;12.50;;;1.30;99.90;;;;;;4974293;28;20213;-54
2024/01/15 02:03:57;;;;;;;16.80;12.20;;;1.40;99.90;;;;;;4961182;28;20521;-53
2024/01/15 02:06:23;;;;;;;17.73;12.33;;;1.50;99.90;;;;;;4976138;28;20244;-50
2024/01/15 02:08:49;;;;;;;17.67;11.67;;;1.50;99.90;;;;;;4978946;28;20237;-53
2024/01/15 02:11:15;;;;;;;17.33;10.50;;;1.40;99.90;;;;;;4972240;28;20294;-51
2024/01/15 02:13:41;;;;;;;18.43;10.17;;;1.60;99.90;;;;;;4972247;28;20541;-53
2024/01/15 02:16:06;;;;;;;15.60;10.90;;;1.70;99.90;;;;;;4972699;28;20206;-51
2024/01/15 02:18:42;;;;;;;14.73;10.73;;;1.70;99.90;;;;;;4972583;28;20230;-62
2024/01/15 02:21:08;;;;;;;16.17;9.10;;;1.60;99.90;;;;;;4970569;28;20235;-62
2024/01/15 02:23:34;;;;;;;18.80;10.83;;;1.40;99.90;;;;;;4959824;28;20200;-62
2024/01/15 02:26:00;;;;;;;12.80;9.00;;;1.50;99.90;;;;;;4969480;28;20240;-62
2024/01/15 02:28:25;;;;;;;14.03;9.07;;;1.60;99.90;;;;;;4973862;28;20290;-61
2024/01/15 02:30:51;;;;;;;12.33;8.40;;;1.60;99.90;;;;;;4973077;28;20268;-62
2024/01/15 02:33:16;;;;;;;9.47;7.27;;;1.70;99.90;;;;;;4975274;28;20215;-60
2024/01/15 02:35:42;;;;;;;10.67;7.57;;;1.70;99.90;;;;;;4972466;28;20418;-62
2024/01/15 02:38:08;;;;;;;13.60;8.83;;;1.80;99.90;;;;;;4976227;28;20207;-64
2024/01/15 02:40:34;;;;;;;11.67;8.70;;;1.90;99.90;;;;;;4970771;28;20261;-63
2024/01/15 02:43:00;;;;;;;9.07;6.80;;;1.80;99.90;;;;;;4958592;28;20241;-63
2024/01/15 02:45:26;;;;;;;8.20;6.83;;;1.90;99.90;;;;;;4976717;28;20203;-66
2024/01/15 02:47:52;;;;;;;9.07;6.33;;;2.00;99.90;;;;;;4955379;28;20255;-63
2024/01/15 02:50:18;;;;;;;6.93;4.80;;;1.90;99.90;;;;;;4974421;28;20294;-62
2024/01/15 02:52:43;;;;;;;8.27;5.73;;;2.00;99.90;;;;;;4960715;28;20249;-62
2024/01/15 02:55:09;;;;;;;15.40;6.63;;;2.10;99.90;;;;;;4976596;28;20210;-61
2024/01/15 02:57:35;;;;;;;9.33;5.33;;;2.10;99.90;;;;;;4978653;28;20256;-60
2024/01/15 03:00:01;;;;;;;8.27;5.57;;;2.00;99.90;;;;;;4972205;28;20206;-61
2024/01/15 03:02:26;;;;;;;5.53;4.77;;;2.00;99.90;;;;;;4973466;28;20720;-62
2024/01/15 03:04:52;;;;;;;8.13;5.60;;;2.10;99.90;;;;;;4971492;28;20215;-61
2024/01/15 03:07:17;;;;;;;10.40;6.97;;;2.10;99.90;;;;;;4970412;28;20305;-62
2024/01/15 03:09:43;;;;;;;6.73;5.53;;;1.90;99.90;;;;;;4974898;28;20224;-62
2024/01/15 03:12:09;;;;;;;8.17;5.63;;;1.90;99.90;;;;;;4969544;28;20231;-52
2024/01/15 03:14:35;;;;;;;11.07;6.47;;;1.90;99.90;;;;;;4969826;28;20212;-53
2024/01/15 03:17:01;;;;;;;7.23;6.13;;;2.00;99.90;;;;;;4969632;28;20862;-53
2024/01/15 03:19:29;;;;;;;7.13;6.10;;;2.20;99.90;;;;;;4972666;28;20242;-53
2024/01/15 03:21:54;;;;;;;8.00;5.33;;;2.00;99.90;;;;;;4953923;28;20300;-52
2024/01/15 03:24:20;;;;;;;9.83;5.63;;;1.80;99.90;;;;;;4970797;28;20294;-52
2024/01/15 03:26:45;;;;;;;7.40;5.77;;;1.80;99.90;;;;;;4978768;28;20625;-52
2024/01/15 03:29:11;;;;;;;7.93;5.90;;;1.90;99.90;;;;;;4976838;28;20308;-53
2024/01/15 03:31:37;;;;;;;9.13;5.50;;;1.80;99.90;;;;;;4971382;28;20204;-52
2024/01/15 03:34:03;;;;;;;6.90;4.67;;;1.90;99.90;;;;;;4970614;28;20206;-53
2024/01/15 03:36:28;;;;;;;8.90;6.07;;;1.90;99.90;;;;;;4974526;28;20210;-52
2024/01/15 03:38:54;;;;;;;9.77;5.27;;;1.90;99.90;;;;;;4974017;28;20215;-53
2024/01/15 03:41:19;;;;;;;8.10;6.13;;;2.00;99.90;;;;;;4972898;28;20257;-52
2024/01/15 03:43:45;;;;;;;9.87;6.10;;;1.90;99.90;;;;;;4957749;28;20210;-52
2024/01/15 03:46:11;;;;;;;7.10;4.70;;;1.90;99.90;;;;;;4975901;28;20286;-52
2024/01/15 03:48:36;;;;;;;6.77;4.43;;;2.00;99.90;;;;;;4958447;28;20543;-52
2024/01/15 03:51:02;;;;;;;11.53;5.80;;;2.10;99.90;;;;;;4970461;28;20207;-52
2024/01/15 03:53:27;;;;;;;7.47;5.23;;;1.90;99.90;;;;;;4972253;28;20222;-52
2024/01/15 03:55:53;;;;;;;10.83;5.13;;;2.00;99.90;;;;;;4970318;28;20302;-52
2024/01/15 03:58:18;;;;;;;8.73;5.53;;;1.90;99.90;;;;;;4970032;28;20715;-52
2024/01/15 04:00:44;;;;;;;6.27;5.50;;;2.00;99.90;;;;;;4972030;28;20204;-53
2024/01/15 04:03:09;;;;;;;8.10;5.23;;;2.00;99.90;;;;;;4974919;28;20882;-52
2024/01/15 04:05:35;;;;;;;5.90;4.70;;;2.00;99.90;;;;;;4974419;28;20203;-52
2024/01/15 04:08:01;;;;;;;8.73;4.67;;;2.00;99.90;;;;;;4968646;28;20336;-54
2024/01/15 04:10:26;;;;;;;5.13;3.50;;;1.90;99.90;;;;;;4971884;28;20203;-53
2024/01/15 04:12:55;;;;;;;7.17;5.43;;;1.90;99.90;;;;;;4969520;28;20578;-52
2024/01/15 04:15:20;;;;;;;8.70;3.93;;;1.90;99.90;;;;;;4980369;28;20240;-55
2024/01/15 04:17:46;;;;;;;7.13;5.33;;;2.00;99.90;;;;;;4972945;28;20657;-53
2024/01/15 04:20:11;;;;;;;6.40;4.47;;;2.00;99.90;;;;;;4974475;28;20730;-56
2024/01/15 04:22:37;;;;;;;5.90;4.43;;;2.00;99.90;;;;;;4971465;28;20220;-61
2024/01/15 04:25:03;;;;;;;4.70;3.97;;;2.00;99.90;;;;;;4972985;28;20252;-60
2024/01/15 04:27:29;;;;;;;8.50;5.70;;;2.00;99.90;;;;;;4973338;28;21059;-61
2024/01/15 04:29:55;;;;;;;6.60;4.87;;;1.90;99.90;;;;;;4955302;28;20202;-53
2024/01/15 04:32:20;;;;;;;8.50;4.17;;;2.00;99.90;;;;;;4973212;28;20268;-53
2024/01/15 04:34:46;;;;;;;4.97;4.13;;;2.00;99.90;;;;;;4975775;28;20692;-53
2024/01/15 04:37:11;;;;;;;7.00;2.97;;;2.00;99.90;;;;;;4978296;28;20296;-54
2024/01/15 04:39:37;;;;;;;5.47;3.97;;;2.00;99.90;;;;;;4977394;28;20201;-56
2024/01/15 04:42:03;;;;;;;5.20;4.20;;;2.10;99.90;;;;;;4971748;28;20640;-63
2024/01/15 04:44:28;;;;;;;6.37;3.43;;;2.30;99.90;;;;;;4973653;28;20207;-54
2024/01/15 04:46:54;;;;;;;5.70;4.23;;;2.30;99.90;;;;;;4969142;28;20237;-52
2024/01/15 04:49:19;;;;;;;8.60;4.17;;;2.20;99.90;;;;;;4956697;28;20236;-53
2024/01/15 04:51:45;;;;;;;6.03;4.50;;;2.00;99.90;;;;;;4973322;28;20557;-52
2024/01/15 04:54:11;;;;;;;5.60;2.73;;;2.00;99.90;;;;;;4938862;28;20271;-52
2024/01/15 04:56:37;;;;;;;8.50;3.53;;;2.10;99.90;;;;;;4970183;28;20215;-53
2024/01/15 04:59:02;;;;;;;5.97;3.33;;;2.10;99.90;;;;;;4978384;28;20238;-53
2024/01/15 05:01:32;;;;;;;8.07;3.30;;;2.20;99.90;;;;;;4965320;28;20205;-53
2024/01/15 05:03:57;;;;;;;5.83;4.03;;;2.20;99.90;;;;;;4975310;28;20196;-52
2024/01/15 05:06:23;;;;;;;3.67;3.03;;;2.10;99.90;;;;;;4974722;28;20222;-53
2024/01/15 05:08:48;;;;;;;4.47;2.40;;;2.20;99.90;;;;;;4971352;28;20721;-52
2024/01/15 05:11:14;;;;;;;6.90;3.37;;;2.20;99.90;;;;;;4954332;28;20218;-52
2024/01/15 05:13:40;;;;;;;2.83;2.53;;;2.00;99.90;;;;;;4971600;28;20751;-53
2024/01/15 05:16:06;;;;;;;8.93;3.00;;;2.00;99.90;;;;;;4972291;28;20196;-52
2024/01/15 05:18:31;;;;;;;5.33;3.13;;;2.00;99.90;;;;;;4971771;28;20224;-52
2024/01/15 05:20:57;;;;;;;3.53;2.07;;;2.10;99.90;;;;;;4971857;28;20358;-52
2024/01/15 05:23:22;;;;;;;8.37;3.27;;;2.20;99.90;;;;;;4966246;28;20207;-51
2024/01/15 05:25:48;;;;;;;7.37;3.07;;;2.10;99.90;;;;;;4970033;28;20688;-52
2024/01/15 05:28:14;;;;;;;4.57;2.27;;;2.20;99.90;;;;;;4969478;28;20230;-52
2024/01/15 05:30:39;;;;;;;3.97;2.57;;;2.20;99.90;;;;;;4957799;28;20214;-52
2024/01/15 05:33:07;;;;;;;5.93;2.80;;;2.10;99.90;;;;;;4968442;28;20206;-56
2024/01/15 05:35:33;;;;;;;5.37;1.93;;;2.20;99.90;;;;;;4972691;28;20211;-51
2024/01/15 05:37:58;;;;;;;4.60;2.30;;;2.30;99.90;;;;;;4974149;28;20220;-52
2024/01/15 05:40:24;;;;;;;4.20;2.53;;;2.30;99.90;;;;;;4972271;28;20195;-53
2024/01/15 05:42:49;;;;;;;6.30;2.97;;;2.30;99.90;;;;;;4975331;28;20282;-52
2024/01/15 05:45:15;;;;;;;6.10;2.30;;;2.20;99.90;;;;;;4972486;28;20290;-52
2024/01/15 05:47:40;;;;;;;9.00;2.60;;;2.30;99.90;;;;;;4974659;28;20228;-51
2024/01/15 05:50:06;;;;;;;8.33;2.50;;;2.30;99.90;;;;;;4975095;28;20287;-51
2024/01/15 05:52:32;;;;;;;3.80;2.10;;;2.40;99.90;;;;;;4977926;28;20214;-52
2024/01/15 05:54:57;;;;;;;6.00;1.87;;;2.40;99.90;;;;;;4976254;28;20256;-51
2024/01/15 05:57:23;;;;;;;3.47;2.23;;;2.20;99.90;;;;;;4979338;28;20201;-52
2024/01/15 05:59:49;;;;;;;4.60;1.90;;;2.10;99.90;;;;;;4979853;28;20252;-51
2024/01/15 06:02:15;;;;;;;3.67;2.20;;;2.10;99.90;;;;;;4976125;28;20305;-52
2024/01/15 06:04:40;;;;;;;6.97;2.33;;;1.90;99.90;;;;;;4980313;28;20313;-52
2024/01/15 06:07:06;;;;;;;2.70;1.83;;;2.10;99.90;;;;;;4975587;28;20223;-51
2024/01/15 06:09:31;;;;;;;7.87;2.93;;;2.10;99.90;;;;;;4978871;28;21032;-53
2024/01/15 06:11:57;;;;;;;3.47;1.80;;;2.10;99.90;;;;;;4975801;28;20701;-52
2024/01/15 06:14:22;;;;;;;12.63;2.93;;;2.20;99.90;;;;;;4973081;28;20201;-51
2024/01/15 06:16:49;;;;;;;7.07;1.80;;;2.10;99.90;;;;;;4970767;28;20628;-53
2024/01/15 06:19:14;;;;;;;6.57;2.47;;;2.10;99.90;;;;;;4981358;28;20230;-53
2024/01/15 06:21:40;;;;;;;6.97;2.37;;;2.20;99.90;;;;;;4974158;28;20878;-52
2024/01/15 06:24:05;;;;;;;6.13;2.07;;;2.20;99.90;;;;;;4973289;28;20213;-52
2024/01/15 06:26:31;;;;;;;6.97;2.60;;;2.20;99.90;;;;;;4976801;28;20223;-53
2024/01/15 06:28:56;;;;;;;10.33;2.27;;;2.20;99.90;;;;;;4977328;28;20672;-53
2024/01/15 06:31:22;;;;;;;4.93;1.93;;;2.20;99.90;;;;;;4972422;28;20287;-56
2024/01/15 06:33:48;;;;;;;5.17;1.80;;;2.20;99.90;;;;;;4974627;28;20208;-51
2024/01/15 06:36:16;;;;;;;11.97;3.17;;;2.40;99.90;;;;;;4983646;28;20284;-53
2024/01/15 06:38:42;;;;;;;4.77;2.20;;;2.30;99.90;;;;;;4974071;28;20657;-61
2024/01/15 06:41:08;;;;;;;7.07;2.43;;;2.20;99.90;;;;;;4975276;28;20204;-52
2024/01/15 06:43:34;;;;;;;7.27;2.97;;;2.20;99.90;;;;;;4973324;28;20558;-55
2024/01/15 06:45:59;;;;;;;5.80;1.57;;;2.20;99.90;;;;;;4974498;28;20201;-53
2024/01/15 06:48:25;;;;;;;6.60;2.50;;;2.30;99.90;;;;;;4977776;28;20233;-62
2024/01/15 06:50:50;;;;;;;8.63;2.77;;;2.40;99.90;;;;;;4971718;28;20406;-52
2024/01/15 06:53:16;;;;;;;5.83;1.37;;;2.30;99.90;;;;;;4976581;28;21067;-52
2024/01/15 06:55:42;;;;;;;3.97;2.20;;;2.20;99.90;;;;;;4978991;28;20522;-60
2024/01/15 06:58:07;;;;;;;8.83;1.97;;;2.30;99.90;;;;;;4975915;28;20228;-52
2024/01/15 07:00:33;;;;;;;5.67;2.23;;;2.30;99.90;;;;;;4951896;28;20238;-52
2024/01/15 07:02:58;;;;;;;4.97;2.03;;;2.20;99.90;;;;;;4976027;28;20193;-56
2024/01/15 07:05:24;;;;;;;5.50;2.67;;;2.20;99.90;;;;;;4975341;28;20806;-52
2024/01/15 07:07:50;;;;;;;3.07;1.53;;;2.30;99.90;;;;;;4975229;28;20212;-52
2024/01/15 07:10:16;;;;;;;7.73;1.77;;;2.40;99.90;;;;;;4975231;28;20198;-51
2024/01/15 07:12:43;;;;;;;5.23;2.53;;;2.40;99.90;;;;;;4956162;28;20636;-52
2024/01/15 07:15:09;;;;;;;6.30;1.87;;;2.40;99.90;;;;;;4982314;28;20302;-51
2024/01/15 07:17:35;;;;;;;3.53;1.97;;;2.30;99.90;;;;;;4974440;28;20713;-53
2024/01/15 07:20:01;;;;;;;6.60;2.13;;;2.30;99.90;;;;;;4979371;28;20211;-53
2024/01/15 07:22:26;;;;;;;5.67;1.70;;;2.30;99.90;;;;;;4974556;28;20242;-53
2024/01/15 07:24:52;;;;;;;13.47;4.00;;;2.40;99.90;;;;;;4978109;28;20239;-51
2024/01/15 07:27:17;;;;;;;3.73;1.63;;;2.40;99.90;;;;;;4973913;28;20230;-52
2024/01/15 07:29:43;;;;;;;6.47;2.17;;;2.50;99.90;;;;;;4977458;28;20756;-52
2024/01/15 07:32:10;;;;;;;5.80;2.20;;;2.40;99.90;;;;;;4975532;28;20721;-53
2024/01/15 07:34:35;;;;;;;8.97;3.07;;;2.40;99.90;;;;;;4971206;28;20203;-52
2024/01/15 07:37:01;;;;;;;5.23;2.03;;;2.50;99.90;;;;;;4976466;28;20814;-52
2024/01/15 07:39:28;;;;;;;4.77;1.43;;;2.40;99.90;;;;;;4973430;28;20748;-52
2024/01/15 07:41:54;;;;;;;2.50;1.80;;;2.50;99.90;;;;;;4976677;28;20752;-52
2024/01/15 07:44:19;;;;;;;8.43;2.57;;;2.60;99.90;;;;;;4975461;28;20298;-51
2024/01/15 07:46:46;;;;;;;3.43;1.17;;;2.40;99.90;;;;;;4973472;28;20644;-52
2024/01/15 07:49:12;;;;;;;10.57;2.87;;;2.40;99.90;;;;;;4978862;28;20291;-52
2024/01/15 07:51:40;;;;;;;7.33;2.73;;;2.40;99.90;;;;;;4954566;28;20773;-52
2024/01/15 07:54:06;;;;;;;8.43;2.00;;;2.40;99.90;;;;;;4978303;28;20204;-52
2024/01/15 07:56:31;;;;;;;4.50;1.60;;;2.30;99.90;;;;;;4973314;28;20198;-52
2024/01/15 07:58:57;;;;;;;6.13;2.10;;;2.40;99.90;;;;;;4974456;28;20266;-52
2024/01/15 08:01:22;;;;;;;4.30;1.73;;;2.50;99.90;;;;;;4968383;28;20669;-52
2024/01/15 08:03:48;;;;;;;6.33;2.20;;;2.40;99.90;;;;;;4972025;28;20719;-52
2024/01/15 08:06:14;;;;;;;6.23;1.87;;;2.30;99.90;;;;;;4978502;28;20200;-51
2024/01/15 08:08:39;;;;;;;7.70;2.70;;;2.40;99.90;;;;;;4979044;28;20201;-52
2024/01/15 08:11:05;;;;;;;4.33;1.40;;;2.40;99.90;;;;;;4972466;28;20204;-52
2024/01/15 08:13:30;;;;;;;5.20;1.60;;;2.50;99.90;;;;;;4970404;28;20666;-53
2024/01/15 08:15:56;;;;;;;6.47;1.90;;;2.60;99.90;;;;;;4969190;28;20296;-53
2024/01/15 08:18:21;;;;;;;1.90;1.47;;;2.50;99.90;;;;;;4978463;28;20255;-52
2024/01/15 08:20:47;;;;;;;7.67;2.53;;;2.60;99.90;;;;;;4975863;28;20314;-52
2024/01/15 08:23:12;;;;;;;18.57;2.03;;;2.70;99.90;;;;;;4971993;28;20211;-53
2024/01/15 08:25:38;;;;;;;10.63;2.37;;;2.60;99.90;;;;;;4974723;28;20653;-53
2024/01/15 08:28:03;;;;;;;8.03;2.47;;;2.50;99.90;;;;;;4969717;28;20304;-51
2024/01/15 08:30:29;;;;;;;6.47;1.83;;;2.60;99.90;;;;;;4970508;28;20713;-51
2024/01/15 08:32:55;;;;;;;3.90;1.90;;;2.60;99.90;;;;;;4982928;28;20191;-52
2024/01/15 08:35:25;;;;;;;6.13;1.83;;;2.50;99.90;;;;;;4975133;28;20208;-52
2024/01/15 08:37:50;;;;;;;5.20;1.77;;;2.50;99.90;;;;;;4978283;28;20193;-52
2024/01/15 08:40:16;;;;;;;3.37;1.43;;;2.50;99.90;;;;;;4975697;28;20581;-53
2024/01/15 08:42:42;;;;;;;8.00;1.20;;;2.50;99.90;;;;;;4971182;28;20194;-53
2024/01/15 08:45:08;;;;;;;5.13;1.53;;;2.70;99.90;;;;;;4975579;28;20610;-52
2024/01/15 08:47:34;;;;;;;6.13;1.77;;;2.60;99.90;;;;;;4970192;28;20218;-52
2024/01/15 08:50:00;;;;;;;8.87;1.93;;;2.50;99.90;;;;;;4968420;28;20213;-52
2024/01/15 08:52:26;;;;;;;7.63;1.37;;;2.50;99.90;;;;;;4973258;28;20210;-52
2024/01/15 08:54:51;;;;;;;3.33;1.73;;;2.50;99.90;;;;;;4973932;28;20203;-51
2024/01/15 08:57:17;;;;;;;6.13;1.73;;;2.50;99.90;;;;;;4961816;28;20201;-52
2024/01/15 08:59:42;;;;;;;6.33;1.83;;;2.40;99.90;;;;;;4978594;28;20195;-52
2024/01/15 09:02:08;;;;;;;6.20;1.27;;;2.50;99.90;;;;;;4977429;28;20307;-52
2024/01/15 09:04:33;;;;;;;2.87;1.60;;;2.50;99.90;;;;;;4973272;28;20241;-52
2024/01/15 09:06:59;;;;;;;7.00;2.03;;;2.50;99.90;;;;;;4977012;28;20250;-52
2024/01/15 09:09:24;;;;;;;6.87;2.33;;;2.50;99.90;;;;;;4968211;28;20196;-51
2024/01/15 09:11:50;;;;;;;7.50;2.57;;;2.60;99.90;;;;;;4971297;28;20905;-51
2024/01/15 09:14:16;;;;;;;7.13;2.50;;;2.40;99.90;;;;;;4971269;28;20212;-51
2024/01/15 09:16:41;;;;;;;9.03;2.37;;;2.40;99.90;;;;;;4966176;28;20195;-52
2024/01/15 09:19:07;;;;;;;7.53;2.30;;;2.40;99.90;;;;;;4971414;28;20231;-64
2024/01/15 09:21:33;;;;;;;6.60;1.90;;;2.50;99.90;;;;;;4965079;28;20794;-53
2024/01/15 09:23:58;;;;;;;6.77;2.00;;;2.60;99.90;;;;;;4962057;28;20198;-53
2024/01/15 09:26:24;;;;;;;4.57;1.87;;;2.60;99.90;;;;;;4972894;28;20198;-52
2024/01/15 09:28:49;;;;;;;1.97;1.57;;;2.70;99.90;;;;;;4971351;28;20231;-52
2024/01/15 09:31:17;;;;;;;5.13;2.20;;;2.70;99.90;;;;;;4972603;28;20211;-52
2024/01/15 09:33:42;;;;;;;3.80;1.87;;;2.60;99.90;;;;;;4970976;28;20721;-51
2024/01/15 09:36:08;;;;;;;5.27;1.80;;;2.70;99.90;;;;;;4970627;28;20243;-53
2024/01/15 09:38:34;;;;;;;5.43;1.87;;;2.60;99.90;;;;;;4975538;28;20209;-52
2024/01/15 09:41:00;;;;;;;8.00;1.90;;;2.60;99.90;;;;;;4973586;28;20203;-53
2024/01/15 09:43:26;;;;;;;5.30;1.77;;;2.70;99.90;;;;;;4971353;28;20206;-51
2024/01/15 09:45:52;;;;;;;2.37;1.27;;;2.70;99.90;;;;;;4955313;28;20200;-52
2024/01/15 09:48:18;;;;;;;5.53;1.67;;;2.80;99.90;;;;;;4968498;28;20228;-51
2024/01/15 09:50:44;;;;;;;3.43;1.40;;;2.80;99.90;;;;;;4965990;28;20257;-52
2024/01/15 09:53:09;;;;;;;4.63;1.50;;;2.70;99.90;;;;;;4976768;28;21000;-53
2024/01/15 09:55:38;;;;;;;7.43;1.33;;;2.50;99.90;;;;;;4960996;28;20345;-51
2024/01/15 09:58:04;;;;;;;8.20;1.63;;;2.60;99.90;;;;;;4972630;28;20255;-53
2024/01/15 10:00:32;;;;;;;2.33;1.20;;;2.70;99.90;;;;;;4969857;28;20224;-55
2024/01/15 10:03:00;;;;;;;1.93;1.57;;;2.80;99.90;;;;;;4979424;28;20541;-52
2024/01/15 10:05:26;;;;;;;2.73;1.63;;;2.80;99.90;;;;;;4974846;28;20601;-53
2024/01/15 10:07:54;;;;;;;4.63;1.53;;;2.90;99.90;;;;;;4978703;28;20779;-52
2024/01/15 10:10:21;;;;;;;2.57;1.27;;;2.90;99.90;;;;;;4971210;28;20208;-53
2024/01/15 10:12:47;;;;;;;5.37;1.73;;;2.90;99.90;;;;;;4975326;28;20199;-51
2024/01/15 10:15:13;;;;;;;3.10;1.53;;;2.80;99.90;;;;;;4978054;28;20829;-52
2024/01/15 10:17:40;;;;;;;6.20;1.57;;;2.70;99.90;;;;;;4970953;28;20812;-51
2024/01/15 10:20:09;;;;;;;3.80;1.93;;;2.70;99.90;;;;;;4954260;28;20688;-52
2024/01/15 10:22:39;;;;;;;4.93;1.67;;;2.80;99.90;;;;;;4967343;28;20210;-54
2024/01/15 10:25:05;;;;;;;7.83;1.57;;;2.80;99.90;;;;;;4968670;28;20199;-61
2024/01/15 10:27:31;;;;;;;3.93;1.00;;;2.80;99.90;;;;;;4971532;28;20268;-53
2024/01/15 10:30:00;;;;;;;3.87;1.33;;;2.90;99.90;;;;;;4974611;28;20203;-52
2024/01/15 10:32:26;;;;;;;5.43;1.40;;;2.90;99.90;;;;;;4976791;28;20222;-53
2024/01/15 10:34:52;;;;;;;1.63;1.53;;;2.90;99.90;;;;;;4980280;28;20242;-52
2024/01/15 10:37:18;;;;;;;4.10;1.27;;;2.90;99.90;;;;;;4960688;28;20231;-55
2024/01/15 10:39:44;;;;;;;8.07;1.80;;;3.10;99.90;;;;;;4973421;28;20700;-53
2024/01/15 10:42:09;;;;;;;4.17;1.60;;;3.60;99.90;;;;;;4973784;28;20200;-53
2024/01/15 10:44:35;;;;;;;1.43;1.20;;;3.70;99.90;;;;;;4974741;28;20205;-53
2024/01/15 10:47:01;;;;;;;2.20;1.67;;;3.80;99.90;;;;;;4973626;28;20230;-52
2024/01/15 10:49:29;;;;;;;3.70;1.47;;;3.70;99.90;;;;;;4978567;28;20203;-54
2024/01/15 10:51:55;;;;;;;3.07;1.30;;;3.70;99.90;;;;;;4969420;28;20252;-53
2024/01/15 10:54:22;;;;;;;4.27;1.80;;;3.80;99.90;;;;;;4971877;28;20215;-53
2024/01/15 10:56:51;;;;;;;5.60;1.20;;;3.70;99.90;;;;;;4974039;28;20247;-60
2024/01/15 10:59:16;;;;;;;3.77;1.10;;;3.90;99.90;;;;;;4978983;28;20629;-59
2024/01/15 11:01:43;;;;;;;3.73;1.43;;;3.60;99.90;;;;;;4972240;28;20255;-54
2024/01/15 11:04:09;;;;;;;9.63;1.77;;;3.60;99.90;;;;;;4974708;28;20203;-54
2024/01/15 11:06:43;;;;;;;3.43;1.33;;;3.70;99.90;;;;;;4974741;28;20226;-58
2024/01/15 11:09:08;;;;;;;2.10;1.47;;;4.10;99.90;;;;;;4981849;28;20216;-57
2024/01/15 11:11:39;;;;;;;2.27;1.37;;;3.80;99.90;;;;;;4974043;28;20336;-59
2024/01/15 11:14:06;;;;;;;2.40;0.93;;;3.80;99.90;;;;;;4965472;28;20197;-58
2024/01/15 11:16:55;;;;;;;1.43;1.30;;;3.70;99.90;;;;;;4952127;28;20371;-59
2024/01/15 11:19:21;;;;;;;1.20;1.07;;;3.60;99.90;;;;;;4970891;28;20225;-52
2024/01/15 11:21:47;;;;;;;0.80;0.70;;;3.50;99.90;;;;;;4969908;28;20563;-61
2024/01/15 11:24:36;;;;;;;4.07;1.50;;;3.70;99.90;;;;;;4972011;28;20294;-58
2024/01/15 11:27:02;;;;;;;1.03;1.00;;;3.40;99.90;;;;;;4972749;28;20241;-55
2024/01/15 11:29:28;;;;;;;0.97;0.97;;;3.50;99.90;;;;;;4972987;28;20214;-58
2024/01/15 11:31:56;;;;;;;1.83;1.43;;;3.40;99.90;;;;;;4975356;28;20200;-53
2024/01/15 11:34:57;;;;;;;2.47;1.30;;;3.30;99.90;;;;;;4972875;28;20898;-60
2024/01/15 11:37:24;;;;;;;3.23;1.30;;;2.90;99.90;;;;;;4970905;28;20213;-55
2024/01/15 11:39:52;;;;;;;2.07;1.80;;;2.70;99.90;;;;;;4969359;28;20200;-58
2024/01/15 11:42:21;;;;;;;2.33;1.50;;;2.70;99.90;;;;;;4955742;28;20211;-58
2024/01/15 11:44:46;;;;;;;3.57;1.27;;;2.60;99.90;;;;;;4975114;28;20538;-59
2024/01/15 11:47:13;;;;;;;3.53;2.00;;;2.50;99.90;;;;;;4977369;28;20233;-52
2024/01/15 11:50:08;;;;;;;1.83;1.60;;;2.30;99.90;;;;;;4969124;28;20281;-57
2024/01/15 11:52:38;;;;;;;3.73;1.67;;;2.00;99.90;;;;;;4961330;28;20228;-53
2024/01/15 11:55:13;;;;;;;2.63;1.70;;;2.00;99.90;;;;;;4974487;28;20214;-53
2024/01/15 11:57:46;;;;;;;2.13;1.93;;;1.90;99.90;;;;;;4976551;28;20214;-53
2024/01/15 12:00:13;;;;;;;3.27;2.13;;;1.90;99.90;;;;;;4959749;28;20937;-53
2024/01/15 12:02:43;;;;;;;3.00;1.80;;;2.00;99.90;;;;;;4975643;28;20204;-53
2024/01/15 12:05:12;;;;;;;4.07;2.43;;;2.00;99.90;;;;;;4968535;28;20215;-52
2024/01/15 12:07:41;;;;;;;5.80;1.83;;;2.10;99.90;;;;;;4982804;28;20254;-53
2024/01/15 12:10:10;;;;;;;2.63;2.10;;;2.10;99.90;;;;;;4955938;28;20778;-53
2024/01/15 12:12:59;;;;;;;1.47;1.37;;;2.10;99.90;;;;;;4956858;28;21031;-53
2024/01/15 12:15:27;;;;;;;2.67;1.73;;;2.40;99.90;;;;;;4966998;28;20209;-52
2024/01/15 12:17:56;;;;;;;2.87;1.30;;;2.30;99.90;;;;;;4970812;28;20230;-52
2024/01/15 12:20:21;;;;;;;1.77;1.40;;;2.30;99.90;;;;;;4976367;28;20240;-52
2024/01/15 12:22:47;;;;;;;1.37;1.27;;;2.30;99.90;;;;;;4976182;28;20192;-62
2024/01/15 12:25:13;;;;;;;5.17;1.70;;;2.30;99.90;;;;;;4971286;28;20207;-57
2024/01/15 12:27:39;;;;;;;4.47;1.87;;;2.30;99.90;;;;;;4971273;28;20356;-52
2024/01/15 12:30:05;;;;;;;1.23;1.13;;;2.40;99.90;;;;;;4989137;28;20197;-52
2024/01/15 12:32:31;;;;;;;2.40;1.40;;;2.30;99.90;;;;;;4973234;28;20196;-53
2024/01/15 12:34:56;;;;;;;2.03;1.60;;;2.30;99.90;;;;;;4973585;28;20212;-55
2024/01/15 12:37:22;;;;;;;5.73;2.10;;;2.30;99.90;;;;;;4972671;28;20568;-61
2024/01/15 12:39:48;;;;;;;2.27;1.60;;;2.30;99.90;;;;;;4973660;28;20672;-65
2024/01/15 12:42:17;;;;;;;2.10;1.10;;;2.00;99.90;;;;;;4975579;28;20192;-63
2024/01/15 12:44:44;;;;;;;1.70;1.60;;;1.70;99.90;;;;;;4957654;28;20206;-61
2024/01/15 12:47:10;;;;;;;3.40;1.70;;;1.60;99.90;;;;;;4966500;28;20250;-60
2024/01/15 12:49:37;;;;;;;1.70;1.53;;;1.50;99.90;;;;;;4968838;28;20221;-60